sensor_id;sensor_type;location;lat;lon;timestamp;temperature;humidity
27314;DHT22;14800;48.174;9.798;2023-07-09T00:01:37;22.10;61.90
27314;DHT22;14800;48.174;9.798;2023-07-09T00:04:03;22.10;61.50
27314;DHT22;14800;48.174;9.798;2023-07-09T00:06:28;22.10;61.50
27314;DHT22;14800;48.174;9.798;2023-07-09T00:08:54;22.10;61.50
27314;DHT22;14800;48.174;9.798;2023-07-09T00:11:20;22.10;61.80
27314;DHT22;14800;48.174;9.798;2023-07-09T00:13:45;22.10;61.90
27314;DHT22;14800;48.174;9.798;2023-07-09T00:16:25;22.00;61.90
27314;DHT22;14800;48.174;9.798;2023-07-09T00:18:51;22.00;62.40
27314;DHT22;14800;48.174;9.798;2023-07-09T00:21:18;21.90;61.90
27314;DHT22;14800;48.174;9.798;2023-07-09T00:23:43;21.80;62.10
27314;DHT22;14800;48.174;9.798;2023-07-09T00:26:10;21.80;62.40
27314;DHT22;14800;48.174;9.798;2023-07-09T00:28:39;21.80;62.90
27314;DHT22;14800;48.174;9.798;2023-07-09T00:31:05;21.70;62.90
27314;DHT22;14800;48.174;9.798;2023-07-09T00:33:30;21.70;62.90
27314;DHT22;14800;48.174;9.798;2023-07-09T00:35:57;21.60;63.30
27314;DHT22;14800;48.174;9.798;2023-07-09T00:38:23;21.60;63.40
27314;DHT22;14800;48.174;9.798;2023-07-09T00:41:08;21.60;63.60
27314;DHT22;14800;48.174;9.798;2023-07-09T00:43:43;21.60;64.70
27314;DHT22;14800;48.174;9.798;2023-07-09T00:51:25;21.40;64.70
27314;DHT22;14800;48.174;9.798;2023-07-09T00:53:54;21.40;64.20
27314;DHT22;14800;48.174;9.798;2023-07-09T00:56:31;21.30;64.30
27314;DHT22;14800;48.174;9.798;2023-07-09T00:59:01;21.20;65.00
27314;DHT22;14800;48.174;9.798;2023-07-09T01:01:31;21.10;65.00
27314;DHT22;14800;48.174;9.798;2023-07-09T01:03:59;21.10;65.20
27314;DHT22;14800;48.174;9.798;2023-07-09T01:06:39;21.10;65.30
27314;DHT22;14800;48.174;9.798;2023-07-09T01:09:07;21.00;65.70
27314;DHT22;14800;48.174;9.798;2023-07-09T01:11:33;20.90;65.30
27314;DHT22;14800;48.174;9.798;2023-07-09T01:14:01;20.90;65.50
27314;DHT22;14800;48.174;9.798;2023-07-09T01:16:32;20.90;66.00
27314;DHT22;14800;48.174;9.798;2023-07-09T01:18:59;20.80;66.20
27314;DHT22;14800;48.174;9.798;2023-07-09T01:21:26;20.80;66.00
27314;DHT22;14800;48.174;9.798;2023-07-09T01:23:52;20.70;66.30
27314;DHT22;14800;48.174;9.798;2023-07-09T01:26:20;20.70;66.20
27314;DHT22;14800;48.174;9.798;2023-07-09T01:28:47;20.60;66.40
27314;DHT22;14800;48.174;9.798;2023-07-09T01:31:14;20.60;66.50
27314;DHT22;14800;48.174;9.798;2023-07-09T01:33:41;20.60;66.90
27314;DHT22;14800;48.174;9.798;2023-07-09T01:36:09;20.60;67.00
27314;DHT22;14800;48.174;9.798;2023-07-09T01:38:35;20.50;67.10
27314;DHT22;14800;48.174;9.798;2023-07-09T01:41:02;20.50;67.10
27314;DHT22;14800;48.174;9.798;2023-07-09T01:43:28;20.50;67.10
27314;DHT22;14800;48.174;9.798;2023-07-09T01:45:54;20.40;67.20
27314;DHT22;14800;48.174;9.798;2023-07-09T01:48:24;20.40;67.30
27314;DHT22;14800;48.174;9.798;2023-07-09T01:50:50;20.30;67.30
27314;DHT22;14800;48.174;9.798;2023-07-09T01:53:17;20.30;67.60
27314;DHT22;14800;48.174;9.798;2023-07-09T01:55:44;20.20;67.70
27314;DHT22;14800;48.174;9.798;2023-07-09T01:58:10;20.20;67.90
27314;DHT22;14800;48.174;9.798;2023-07-09T02:00:37;20.20;68.00
27314;DHT22;14800;48.174;9.798;2023-07-09T02:03:03;20.20;67.90
27314;DHT22;14800;48.174;9.798;2023-07-09T02:05:31;20.10;68.00
27314;DHT22;14800;48.174;9.798;2023-07-09T02:07:57;20.10;68.30
27314;DHT22;14800;48.174;9.798;2023-07-09T02:10:23;20.10;68.40
27314;DHT22;14800;48.174;9.798;2023-07-09T02:12:49;20.10;68.30
27314;DHT22;14800;48.174;9.798;2023-07-09T02:15:15;20.10;69.00
27314;DHT22;14800;48.174;9.798;2023-07-09T02:17:41;20.00;68.20
27314;DHT22;14800;48.174;9.798;2023-07-09T02:20:09;20.00;68.40
27314;DHT22;14800;48.174;9.798;2023-07-09T02:22:36;20.00;68.50
27314;DHT22;14800;48.174;9.798;2023-07-09T02:25:02;20.00;68.50
27314;DHT22;14800;48.174;9.798;2023-07-09T02:27:28;19.90;68.40
27314;DHT22;14800;48.174;9.798;2023-07-09T02:29:53;19.90;68.40
27314;DHT22;14800;48.174;9.798;2023-07-09T02:32:25;19.90;68.50
27314;DHT22;14800;48.174;9.798;2023-07-09T02:34:52;19.90;68.90
27314;DHT22;14800;48.174;9.798;2023-07-09T02:37:20;20.00;68.50
27314;DHT22;14800;48.174;9.798;2023-07-09T02:39:46;20.00;68.80
27314;DHT22;14800;48.174;9.798;2023-07-09T02:42:14;20.00;68.60
27314;DHT22;14800;48.174;9.798;2023-07-09T02:44:41;20.00;68.80
27314;DHT22;14800;48.174;9.798;2023-07-09T02:47:07;20.10;68.80
27314;DHT22;14800;48.174;9.798;2023-07-09T02:49:33;20.10;68.70
27314;DHT22;14800;48.174;9.798;2023-07-09T02:51:59;20.10;68.70
27314;DHT22;14800;48.174;9.798;2023-07-09T02:54:24;20.00;68.90
27314;DHT22;14800;48.174;9.798;2023-07-09T02:56:50;19.90;69.10
27314;DHT22;14800;48.174;9.798;2023-07-09T02:59:16;19.90;69.30
27314;DHT22;14800;48.174;9.798;2023-07-09T03:01:42;19.80;69.30
27314;DHT22;14800;48.174;9.798;2023-07-09T03:04:08;19.80;69.50
27314;DHT22;14800;48.174;9.798;2023-07-09T03:06:35;19.70;69.50
27314;DHT22;14800;48.174;9.798;2023-07-09T03:09:02;19.60;69.60
27314;DHT22;14800;48.174;9.798;2023-07-09T03:11:30;19.60;69.80
27314;DHT22;14800;48.174;9.798;2023-07-09T03:13:57;19.50;70.20
27314;DHT22;14800;48.174;9.798;2023-07-09T03:16:22;19.50;70.40
27314;DHT22;14800;48.174;9.798;2023-07-09T03:18:48;19.50;70.60
27314;DHT22;14800;48.174;9.798;2023-07-09T03:21:14;19.50;70.40
27314;DHT22;14800;48.174;9.798;2023-07-09T03:23:40;19.50;70.20
27314;DHT22;14800;48.174;9.798;2023-07-09T03:26:06;19.50;70.30
27314;DHT22;14800;48.174;9.798;2023-07-09T03:28:32;19.50;70.20
27314;DHT22;14800;48.174;9.798;2023-07-09T03:30:58;19.50;70.00
27314;DHT22;14800;48.174;9.798;2023-07-09T03:33:24;19.50;70.10
27314;DHT22;14800;48.174;9.798;2023-07-09T03:35:50;19.60;70.00
27314;DHT22;14800;48.174;9.798;2023-07-09T03:38:16;19.60;69.90
27314;DHT22;14800;48.174;9.798;2023-07-09T03:40:42;19.60;70.00
27314;DHT22;14800;48.174;9.798;2023-07-09T03:43:09;19.60;70.10
27314;DHT22;14800;48.174;9.798;2023-07-09T03:45:36;19.60;70.10
27314;DHT22;14800;48.174;9.798;2023-07-09T03:48:03;19.60;70.00
27314;DHT22;14800;48.174;9.798;2023-07-09T03:50:28;19.60;70.20
27314;DHT22;14800;48.174;9.798;2023-07-09T03:52:54;19.50;70.40
27314;DHT22;14800;48.174;9.798;2023-07-09T03:55:20;19.40;70.60
27314;DHT22;14800;48.174;9.798;2023-07-09T03:57:46;19.40;70.50
27314;DHT22;14800;48.174;9.798;2023-07-09T04:00:13;19.30;70.90
27314;DHT22;14800;48.174;9.798;2023-07-09T04:02:40;19.30;71.30
27314;DHT22;14800;48.174;9.798;2023-07-09T04:05:07;19.30;71.40
27314;DHT22;14800;48.174;9.798;2023-07-09T04:07:34;19.30;71.50
27314;DHT22;14800;48.174;9.798;2023-07-09T04:09:59;19.30;71.60
27314;DHT22;14800;48.174;9.798;2023-07-09T04:12:25;19.20;71.80
27314;DHT22;14800;48.174;9.798;2023-07-09T04:14:50;19.20;72.10
27314;DHT22;14800;48.174;9.798;2023-07-09T04:17:16;19.20;72.20
27314;DHT22;14800;48.174;9.798;2023-07-09T04:19:41;19.20;72.20
27314;DHT22;14800;48.174;9.798;2023-07-09T04:22:10;19.20;72.20
27314;DHT22;14800;48.174;9.798;2023-07-09T04:24:35;19.20;72.30
27314;DHT22;14800;48.174;9.798;2023-07-09T04:27:01;19.30;72.70
27314;DHT22;14800;48.174;9.798;2023-07-09T04:29:31;19.30;72.80
27314;DHT22;14800;48.174;9.798;2023-07-09T04:31:59;19.30;72.80
27314;DHT22;14800;48.174;9.798;2023-07-09T04:34:25;19.30;72.80
27314;DHT22;14800;48.174;9.798;2023-07-09T04:36:50;19.30;72.80
27314;DHT22;14800;48.174;9.798;2023-07-09T04:39:16;19.30;73.00
27314;DHT22;14800;48.174;9.798;2023-07-09T04:41:41;19.40;72.90
27314;DHT22;14800;48.174;9.798;2023-07-09T04:44:07;19.40;72.80
27314;DHT22;14800;48.174;9.798;2023-07-09T04:46:32;19.40;72.80
27314;DHT22;14800;48.174;9.798;2023-07-09T04:48:58;19.50;72.90
27314;DHT22;14800;48.174;9.798;2023-07-09T04:51:25;19.50;73.10
27314;DHT22;14800;48.174;9.798;2023-07-09T04:53:51;19.60;73.20
27314;DHT22;14800;48.174;9.798;2023-07-09T04:56:17;19.60;73.30
27314;DHT22;14800;48.174;9.798;2023-07-09T04:58:43;19.60;73.10
27314;DHT22;14800;48.174;9.798;2023-07-09T05:01:09;19.60;73.40
27314;DHT22;14800;48.174;9.798;2023-07-09T05:03:34;19.60;73.60
27314;DHT22;14800;48.174;9.798;2023-07-09T05:06:00;19.70;73.80
27314;DHT22;14800;48.174;9.798;2023-07-09T05:08:25;19.70;73.50
27314;DHT22;14800;48.174;9.798;2023-07-09T05:10:52;19.70;73.50
27314;DHT22;14800;48.174;9.798;2023-07-09T05:13:18;19.80;73.70
27314;DHT22;14800;48.174;9.798;2023-07-09T05:15:45;19.80;73.80
27314;DHT22;14800;48.174;9.798;2023-07-09T05:18:15;19.90;73.80
27314;DHT22;14800;48.174;9.798;2023-07-09T05:20:41;19.90;73.90
27314;DHT22;14800;48.174;9.798;2023-07-09T05:23:08;20.00;73.50
27314;DHT22;14800;48.174;9.798;2023-07-09T05:25:34;20.10;73.70
27314;DHT22;14800;48.174;9.798;2023-07-09T05:28:00;20.20;73.70
27314;DHT22;14800;48.174;9.798;2023-07-09T05:30:26;20.30;73.50
27314;DHT22;14800;48.174;9.798;2023-07-09T05:32:51;20.30;73.30
27314;DHT22;14800;48.174;9.798;2023-07-09T05:35:19;20.40;72.80
27314;DHT22;14800;48.174;9.798;2023-07-09T05:37:45;20.50;72.60
27314;DHT22;14800;48.174;9.798;2023-07-09T05:40:11;20.60;72.50
27314;DHT22;14800;48.174;9.798;2023-07-09T05:42:36;20.70;72.70
27314;DHT22;14800;48.174;9.798;2023-07-09T05:45:02;20.80;72.60
27314;DHT22;14800;48.174;9.798;2023-07-09T05:47:28;20.90;72.30
27314;DHT22;14800;48.174;9.798;2023-07-09T05:49:54;21.00;72.10
27314;DHT22;14800;48.174;9.798;2023-07-09T05:52:21;21.10;72.20
27314;DHT22;14800;48.174;9.798;2023-07-09T05:54:51;21.20;72.00
27314;DHT22;14800;48.174;9.798;2023-07-09T05:57:18;21.30;71.80
27314;DHT22;14800;48.174;9.798;2023-07-09T05:59:44;21.40;71.60
27314;DHT22;14800;48.174;9.798;2023-07-09T06:02:18;21.50;71.30
27314;DHT22;14800;48.174;9.798;2023-07-09T06:04:44;21.60;71.40
27314;DHT22;14800;48.174;9.798;2023-07-09T06:07:11;21.70;71.00
27314;DHT22;14800;48.174;9.798;2023-07-09T06:09:37;21.80;71.10
27314;DHT22;14800;48.174;9.798;2023-07-09T06:12:03;21.90;71.20
27314;DHT22;14800;48.174;9.798;2023-07-09T06:14:31;22.10;71.40
27314;DHT22;14800;48.174;9.798;2023-07-09T06:16:57;22.10;71.40
27314;DHT22;14800;48.174;9.798;2023-07-09T06:19:23;22.20;71.10
27314;DHT22;14800;48.174;9.798;2023-07-09T06:21:49;22.30;70.90
27314;DHT22;14800;48.174;9.798;2023-07-09T06:24:14;22.40;70.70
27314;DHT22;14800;48.174;9.798;2023-07-09T06:26:40;22.60;70.70
27314;DHT22;14800;48.174;9.798;2023-07-09T06:29:05;22.60;70.40
27314;DHT22;14800;48.174;9.798;2023-07-09T06:31:31;22.80;70.20
27314;DHT22;14800;48.174;9.798;2023-07-09T06:33:57;22.90;70.50
27314;DHT22;14800;48.174;9.798;2023-07-09T06:36:22;23.00;69.90
27314;DHT22;14800;48.174;9.798;2023-07-09T06:38:48;23.10;69.30
27314;DHT22;14800;48.174;9.798;2023-07-09T06:41:14;23.20;68.50
27314;DHT22;14800;48.174;9.798;2023-07-09T06:43:40;23.30;68.10
27314;DHT22;14800;48.174;9.798;2023-07-09T06:46:08;23.40;67.60
27314;DHT22;14800;48.174;9.798;2023-07-09T06:48:35;23.50;67.50
27314;DHT22;14800;48.174;9.798;2023-07-09T06:51:00;23.70;67.60
27314;DHT22;14800;48.174;9.798;2023-07-09T06:53:27;23.70;67.30
27314;DHT22;14800;48.174;9.798;2023-07-09T06:55:53;23.80;66.90
27314;DHT22;14800;48.174;9.798;2023-07-09T06:58:21;23.90;66.90
27314;DHT22;14800;48.174;9.798;2023-07-09T07:00:49;24.00;66.60
27314;DHT22;14800;48.174;9.798;2023-07-09T07:03:15;24.10;66.30
27314;DHT22;14800;48.174;9.798;2023-07-09T07:05:44;24.20;66.10
27314;DHT22;14800;48.174;9.798;2023-07-09T07:08:10;24.40;65.90
27314;DHT22;14800;48.174;9.798;2023-07-09T07:10:36;24.50;65.50
27314;DHT22;14800;48.174;9.798;2023-07-09T07:13:02;24.60;65.70
27314;DHT22;14800;48.174;9.798;2023-07-09T07:15:27;24.70;64.80
27314;DHT22;14800;48.174;9.798;2023-07-09T07:17:53;24.80;64.50
27314;DHT22;14800;48.174;9.798;2023-07-09T07:20:19;25.00;64.40
27314;DHT22;14800;48.174;9.798;2023-07-09T07:22:44;25.00;64.10
27314;DHT22;14800;48.174;9.798;2023-07-09T07:25:10;25.20;64.00
27314;DHT22;14800;48.174;9.798;2023-07-09T07:27:37;25.30;63.30
27314;DHT22;14800;48.174;9.798;2023-07-09T07:30:03;25.40;63.00
27314;DHT22;14800;48.174;9.798;2023-07-09T07:32:29;25.50;63.20
27314;DHT22;14800;48.174;9.798;2023-07-09T07:34:54;25.70;62.60
27314;DHT22;14800;48.174;9.798;2023-07-09T07:37:20;25.80;62.40
27314;DHT22;14800;48.174;9.798;2023-07-09T07:39:49;25.90;62.50
27314;DHT22;14800;48.174;9.798;2023-07-09T07:42:15;26.10;62.20
27314;DHT22;14800;48.174;9.798;2023-07-09T07:44:40;26.20;62.00
27314;DHT22;14800;48.174;9.798;2023-07-09T07:47:06;26.30;61.60
27314;DHT22;14800;48.174;9.798;2023-07-09T07:49:32;26.40;60.80
27314;DHT22;14800;48.174;9.798;2023-07-09T07:51:58;26.50;60.50
27314;DHT22;14800;48.174;9.798;2023-07-09T07:54:24;26.60;60.30
27314;DHT22;14800;48.174;9.798;2023-07-09T07:56:49;26.70;60.50
27314;DHT22;14800;48.174;9.798;2023-07-09T07:59:17;26.90;60.70
27314;DHT22;14800;48.174;9.798;2023-07-09T08:01:43;26.90;59.80
27314;DHT22;14800;48.174;9.798;2023-07-09T08:04:08;27.10;59.90
27314;DHT22;14800;48.174;9.798;2023-07-09T08:06:35;27.20;59.50
27314;DHT22;14800;48.174;9.798;2023-07-09T08:09:01;27.30;59.10
27314;DHT22;14800;48.174;9.798;2023-07-09T08:11:26;27.50;58.50
27314;DHT22;14800;48.174;9.798;2023-07-09T08:13:53;27.60;58.70
27314;DHT22;14800;48.174;9.798;2023-07-09T08:16:19;27.70;58.30
27314;DHT22;14800;48.174;9.798;2023-07-09T08:18:44;27.90;58.30
27314;DHT22;14800;48.174;9.798;2023-07-09T08:21:10;28.00;58.00
27314;DHT22;14800;48.174;9.798;2023-07-09T08:23:36;28.10;57.70
27314;DHT22;14800;48.174;9.798;2023-07-09T08:26:03;28.30;57.60
27314;DHT22;14800;48.174;9.798;2023-07-09T08:28:30;28.50;57.10
27314;DHT22;14800;48.174;9.798;2023-07-09T08:30:56;28.60;56.70
27314;DHT22;14800;48.174;9.798;2023-07-09T08:33:22;28.80;56.80
27314;DHT22;14800;48.174;9.798;2023-07-09T08:35:49;28.90;56.40
27314;DHT22;14800;48.174;9.798;2023-07-09T08:38:16;29.00;56.10
27314;DHT22;14800;48.174;9.798;2023-07-09T08:40:42;29.20;55.90
27314;DHT22;14800;48.174;9.798;2023-07-09T08:48:54;29.60;53.90
27314;DHT22;14800;48.174;9.798;2023-07-09T08:51:30;29.80;53.70
27314;DHT22;14800;48.174;9.798;2023-07-09T08:53:59;29.90;53.40
27314;DHT22;14800;48.174;9.798;2023-07-09T08:56:31;30.00;53.30
27314;DHT22;14800;48.174;9.798;2023-07-09T08:59:00;30.10;52.60
27314;DHT22;14800;48.174;9.798;2023-07-09T09:01:39;30.20;52.60
27314;DHT22;14800;48.174;9.798;2023-07-09T09:04:28;30.30;52.30
27314;DHT22;14800;48.174;9.798;2023-07-09T09:09:38;30.60;51.30
27314;DHT22;14800;48.174;9.798;2023-07-09T09:15:01;30.90;51.60
27314;DHT22;14800;48.174;9.798;2023-07-09T09:17:30;31.00;51.40
27314;DHT22;14800;48.174;9.798;2023-07-09T09:20:03;31.10;51.10
27314;DHT22;14800;48.174;9.798;2023-07-09T09:22:40;31.20;50.50
27314;DHT22;14800;48.174;9.798;2023-07-09T09:25:30;31.30;50.10
27314;DHT22;14800;48.174;9.798;2023-07-09T09:27:56;31.40;49.50
27314;DHT22;14800;48.174;9.798;2023-07-09T09:30:24;31.50;49.70
27314;DHT22;14800;48.174;9.798;2023-07-09T09:32:59;31.50;49.10
27314;DHT22;14800;48.174;9.798;2023-07-09T09:35:30;31.60;47.70
27314;DHT22;14800;48.174;9.798;2023-07-09T09:37:58;31.60;47.80
27314;DHT22;14800;48.174;9.798;2023-07-09T09:40:26;31.70;47.80
27314;DHT22;14800;48.174;9.798;2023-07-09T09:42:57;31.90;47.00
27314;DHT22;14800;48.174;9.798;2023-07-09T09:45:33;32.00;46.20
27314;DHT22;14800;48.174;9.798;2023-07-09T09:48:00;32.00;44.10
27314;DHT22;14800;48.174;9.798;2023-07-09T09:50:30;32.10;44.70
27314;DHT22;14800;48.174;9.798;2023-07-09T09:52:57;32.20;45.60
27314;DHT22;14800;48.174;9.798;2023-07-09T09:55:27;32.30;45.30
27314;DHT22;14800;48.174;9.798;2023-07-09T09:57:54;32.40;45.60
27314;DHT22;14800;48.174;9.798;2023-07-09T10:00:24;32.40;45.10
27314;DHT22;14800;48.174;9.798;2023-07-09T10:02:50;32.50;44.90
27314;DHT22;14800;48.174;9.798;2023-07-09T10:08:43;32.70;44.30
27314;DHT22;14800;48.174;9.798;2023-07-09T10:11:23;32.80;44.70
27314;DHT22;14800;48.174;9.798;2023-07-09T10:13:55;32.90;44.00
27314;DHT22;14800;48.174;9.798;2023-07-09T10:16:38;32.90;43.50
27314;DHT22;14800;48.174;9.798;2023-07-09T10:21:41;33.10;45.20
27314;DHT22;14800;48.174;9.798;2023-07-09T10:27:13;33.20;42.50
27314;DHT22;14800;48.174;9.798;2023-07-09T10:32:24;33.30;42.10
27314;DHT22;14800;48.174;9.798;2023-07-09T10:35:08;33.30;40.80
27314;DHT22;14800;48.174;9.798;2023-07-09T10:38:10;33.40;40.80
27314;DHT22;14800;48.174;9.798;2023-07-09T10:40:50;33.50;40.70
27314;DHT22;14800;48.174;9.798;2023-07-09T10:43:32;33.50;40.70
27314;DHT22;14800;48.174;9.798;2023-07-09T10:46:45;33.50;40.70
27314;DHT22;14800;48.174;9.798;2023-07-09T10:48:52;33.60;40.60
27314;DHT22;14800;48.174;9.798;2023-07-09T10:51:31;33.70;40.80
27314;DHT22;14800;48.174;9.798;2023-07-09T10:53:58;33.70;40.90
27314;DHT22;14800;48.174;9.798;2023-07-09T10:56:28;33.80;41.30
27314;DHT22;14800;48.174;9.798;2023-07-09T10:59:19;33.80;40.80
27314;DHT22;14800;48.174;9.798;2023-07-09T11:01:51;33.90;40.90
27314;DHT22;14800;48.174;9.798;2023-07-09T11:04:44;33.90;40.30
27314;DHT22;14800;48.174;9.798;2023-07-09T11:07:15;33.90;40.70
27314;DHT22;14800;48.174;9.798;2023-07-09T11:09:44;33.90;40.50
27314;DHT22;14800;48.174;9.798;2023-07-09T11:12:34;34.00;40.40
27314;DHT22;14800;48.174;9.798;2023-07-09T11:15:06;34.00;39.50
27314;DHT22;14800;48.174;9.798;2023-07-09T11:17:37;34.10;39.60
27314;DHT22;14800;48.174;9.798;2023-07-09T11:20:16;34.10;39.80
27314;DHT22;14800;48.174;9.798;2023-07-09T11:22:50;34.20;39.40
27314;DHT22;14800;48.174;9.798;2023-07-09T11:25:28;34.20;39.60
27314;DHT22;14800;48.174;9.798;2023-07-09T11:28:04;34.30;38.80
27314;DHT22;14800;48.174;9.798;2023-07-09T11:30:30;34.30;38.80
27314;DHT22;14800;48.174;9.798;2023-07-09T11:35:26;34.30;39.10
27314;DHT22;14800;48.174;9.798;2023-07-09T11:37:53;34.30;39.10
27314;DHT22;14800;48.174;9.798;2023-07-09T11:40:21;34.30;39.40
27314;DHT22;14800;48.174;9.798;2023-07-09T11:45:21;34.30;38.20
27314;DHT22;14800;48.174;9.798;2023-07-09T11:50:47;34.30;38.00
27314;DHT22;14800;48.174;9.798;2023-07-09T11:54:01;34.30;37.90
27314;DHT22;14800;48.174;9.798;2023-07-09T11:56:03;34.30;37.80
27314;DHT22;14800;48.174;9.798;2023-07-09T11:58:28;34.30;37.90
27314;DHT22;14800;48.174;9.798;2023-07-09T12:00:56;34.30;37.80
27314;DHT22;14800;48.174;9.798;2023-07-09T12:03:31;34.30;37.40
27314;DHT22;14800;48.174;9.798;2023-07-09T12:06:13;34.30;37.60
27314;DHT22;14800;48.174;9.798;2023-07-09T12:08:43;34.30;37.10
27314;DHT22;14800;48.174;9.798;2023-07-09T12:11:19;34.30;37.40
27314;DHT22;14800;48.174;9.798;2023-07-09T12:13:45;34.40;36.30
27314;DHT22;14800;48.174;9.798;2023-07-09T12:18:52;34.50;36.60
27314;DHT22;14800;48.174;9.798;2023-07-09T12:21:18;34.50;37.40
27314;DHT22;14800;48.174;9.798;2023-07-09T12:23:44;34.60;36.80
27314;DHT22;14800;48.174;9.798;2023-07-09T12:26:14;34.60;36.50
27314;DHT22;14800;48.174;9.798;2023-07-09T12:28:40;34.60;36.00
27314;DHT22;14800;48.174;9.798;2023-07-09T12:31:14;34.60;35.90
27314;DHT22;14800;48.174;9.798;2023-07-09T12:33:49;34.60;35.50
27314;DHT22;14800;48.174;9.798;2023-07-09T12:36:16;34.60;35.20
27314;DHT22;14800;48.174;9.798;2023-07-09T12:38:48;34.70;36.10
27314;DHT22;14800;48.174;9.798;2023-07-09T12:41:20;34.70;36.20
27314;DHT22;14800;48.174;9.798;2023-07-09T12:43:48;34.70;36.50
27314;DHT22;14800;48.174;9.798;2023-07-09T12:46:14;34.80;36.70
27314;DHT22;14800;48.174;9.798;2023-07-09T12:48:40;34.90;36.10
27314;DHT22;14800;48.174;9.798;2023-07-09T12:51:08;34.90;35.90
27314;DHT22;14800;48.174;9.798;2023-07-09T12:53:35;34.90;35.40
27314;DHT22;14800;48.174;9.798;2023-07-09T12:56:02;34.90;35.50
27314;DHT22;14800;48.174;9.798;2023-07-09T12:58:31;35.00;35.50
27314;DHT22;14800;48.174;9.798;2023-07-09T13:00:58;35.00;35.00
27314;DHT22;14800;48.174;9.798;2023-07-09T13:03:30;35.00;35.20
27314;DHT22;14800;48.174;9.798;2023-07-09T13:06:04;35.00;35.10
27314;DHT22;14800;48.174;9.798;2023-07-09T13:08:33;35.10;35.00
27314;DHT22;14800;48.174;9.798;2023-07-09T13:11:18;35.10;35.10
27314;DHT22;14800;48.174;9.798;2023-07-09T13:14:03;35.20;34.80
27314;DHT22;14800;48.174;9.798;2023-07-09T13:16:30;35.20;34.60
27314;DHT22;14800;48.174;9.798;2023-07-09T13:18:55;35.20;34.60
27314;DHT22;14800;48.174;9.798;2023-07-09T13:21:22;35.20;34.60
27314;DHT22;14800;48.174;9.798;2023-07-09T13:23:48;35.30;34.50
27314;DHT22;14800;48.174;9.798;2023-07-09T13:26:14;35.30;34.20
27314;DHT22;14800;48.174;9.798;2023-07-09T13:28:42;35.30;34.20
27314;DHT22;14800;48.174;9.798;2023-07-09T13:31:16;35.30;34.40
27314;DHT22;14800;48.174;9.798;2023-07-09T13:33:44;35.40;34.50
27314;DHT22;14800;48.174;9.798;2023-07-09T13:36:13;35.40;34.70
27314;DHT22;14800;48.174;9.798;2023-07-09T13:38:39;35.30;34.20
27314;DHT22;14800;48.174;9.798;2023-07-09T13:41:13;35.30;34.20
27314;DHT22;14800;48.174;9.798;2023-07-09T13:43:43;35.30;33.50
27314;DHT22;14800;48.174;9.798;2023-07-09T13:46:09;35.30;33.50
27314;DHT22;14800;48.174;9.798;2023-07-09T13:48:37;35.30;33.40
27314;DHT22;14800;48.174;9.798;2023-07-09T13:51:14;35.30;33.50
27314;DHT22;14800;48.174;9.798;2023-07-09T13:53:41;35.30;33.00
27314;DHT22;14800;48.174;9.798;2023-07-09T13:56:06;35.40;33.50
27314;DHT22;14800;48.174;9.798;2023-07-09T13:58:32;35.40;33.20
27314;DHT22;14800;48.174;9.798;2023-07-09T14:00:59;35.50;33.00
27314;DHT22;14800;48.174;9.798;2023-07-09T14:03:31;35.50;32.20
27314;DHT22;14800;48.174;9.798;2023-07-09T14:05:57;35.50;32.40
27314;DHT22;14800;48.174;9.798;2023-07-09T14:08:22;35.50;32.60
27314;DHT22;14800;48.174;9.798;2023-07-09T14:10:49;35.60;32.40
27314;DHT22;14800;48.174;9.798;2023-07-09T14:13:20;35.70;31.70
27314;DHT22;14800;48.174;9.798;2023-07-09T14:15:46;35.80;31.70
27314;DHT22;14800;48.174;9.798;2023-07-09T14:18:15;35.80;31.70
27314;DHT22;14800;48.174;9.798;2023-07-09T14:20:42;35.90;31.40
27314;DHT22;14800;48.174;9.798;2023-07-09T14:23:16;35.90;31.00
27314;DHT22;14800;48.174;9.798;2023-07-09T14:25:42;36.00;30.60
27314;DHT22;14800;48.174;9.798;2023-07-09T14:28:19;36.10;32.90
27314;DHT22;14800;48.174;9.798;2023-07-09T14:30:46;36.20;29.60
27314;DHT22;14800;48.174;9.798;2023-07-09T14:33:16;36.20;30.10
27314;DHT22;14800;48.174;9.798;2023-07-09T14:35:42;36.20;30.20
27314;DHT22;14800;48.174;9.798;2023-07-09T14:40:42;36.30;30.10
27314;DHT22;14800;48.174;9.798;2023-07-09T14:43:10;36.30;30.50
27314;DHT22;14800;48.174;9.798;2023-07-09T14:45:36;36.40;30.10
27314;DHT22;14800;48.174;9.798;2023-07-09T14:48:12;36.40;30.20
27314;DHT22;14800;48.174;9.798;2023-07-09T14:50:38;36.50;30.00
27314;DHT22;14800;48.174;9.798;2023-07-09T14:53:10;36.50;30.00
27314;DHT22;14800;48.174;9.798;2023-07-09T14:55:37;36.60;29.70
27314;DHT22;14800;48.174;9.798;2023-07-09T14:58:17;36.60;29.80
27314;DHT22;14800;48.174;9.798;2023-07-09T15:00:44;36.60;29.00
27314;DHT22;14800;48.174;9.798;2023-07-09T15:03:23;36.60;29.20
27314;DHT22;14800;48.174;9.798;2023-07-09T15:05:50;36.60;29.50
27314;DHT22;14800;48.174;9.798;2023-07-09T15:08:21;36.50;29.40
27314;DHT22;14800;48.174;9.798;2023-07-09T15:10:48;36.60;29.30
27314;DHT22;14800;48.174;9.798;2023-07-09T15:15:52;36.60;29.00
27314;DHT22;14800;48.174;9.798;2023-07-09T15:18:17;36.60;29.40
27314;DHT22;14800;48.174;9.798;2023-07-09T15:20:48;36.60;29.30
27314;DHT22;14800;48.174;9.798;2023-07-09T15:23:14;36.60;29.40
27314;DHT22;14800;48.174;9.798;2023-07-09T15:25:40;36.60;29.30
27314;DHT22;14800;48.174;9.798;2023-07-09T15:28:05;36.60;29.10
27314;DHT22;14800;48.174;9.798;2023-07-09T15:30:31;36.60;29.30
27314;DHT22;14800;48.174;9.798;2023-07-09T15:32:59;36.60;28.80
27314;DHT22;14800;48.174;9.798;2023-07-09T15:35:28;36.70;28.90
27314;DHT22;14800;48.174;9.798;2023-07-09T15:37:56;36.70;28.80
27314;DHT22;14800;48.174;9.798;2023-07-09T15:40:25;36.70;28.90
27314;DHT22;14800;48.174;9.798;2023-07-09T15:42:56;36.80;29.00
27314;DHT22;14800;48.174;9.798;2023-07-09T15:45:23;36.80;28.20
27314;DHT22;14800;48.174;9.798;2023-07-09T15:47:50;36.90;28.60
27314;DHT22;14800;48.174;9.798;2023-07-09T15:50:20;37.00;28.60
27314;DHT22;14800;48.174;9.798;2023-07-09T15:52:46;37.00;28.60
27314;DHT22;14800;48.174;9.798;2023-07-09T15:55:20;37.00;28.60
27314;DHT22;14800;48.174;9.798;2023-07-09T15:57:46;37.00;28.60
27314;DHT22;14800;48.174;9.798;2023-07-09T16:00:15;37.00;28.90
27314;DHT22;14800;48.174;9.798;2023-07-09T16:02:41;37.10;29.00
27314;DHT22;14800;48.174;9.798;2023-07-09T16:05:30;37.10;28.50
27314;DHT22;14800;48.174;9.798;2023-07-09T16:07:58;37.10;28.80
27314;DHT22;14800;48.174;9.798;2023-07-09T16:10:26;37.20;28.90
27314;DHT22;14800;48.174;9.798;2023-07-09T16:12:55;37.40;28.70
27314;DHT22;14800;48.174;9.798;2023-07-09T16:15:22;37.50;29.20
27314;DHT22;14800;48.174;9.798;2023-07-09T16:17:49;37.60;29.40
27314;DHT22;14800;48.174;9.798;2023-07-09T16:20:23;37.70;29.50
27314;DHT22;14800;48.174;9.798;2023-07-09T16:22:54;37.70;28.60